createdAt,value
2022-11-01T00:01:46.922Z,70.28
2022-11-01T00:04:13.610Z,70.52
2022-11-01T00:06:40.266Z,70.71
2022-11-01T00:09:07.611Z,70.97
2022-11-01T00:11:34.190Z,71.20
2022-11-01T00:14:00.814Z,71.13
2022-11-01T00:16:27.832Z,71.01
2022-11-01T00:18:54.758Z,71.15
2022-11-01T00:21:21.576Z,70.96
2022-11-01T00:23:48.242Z,71.00
2022-11-01T00:26:20.688Z,71.15
2022-11-01T00:28:48.046Z,71.33
2022-11-01T00:31:16.492Z,71.00
2022-11-01T00:33:43.292Z,70.70
2022-11-01T00:36:10.332Z,71.00
2022-11-01T00:38:36.960Z,70.50
2022-11-01T00:41:04.437Z,70.56
2022-11-01T00:43:31.891Z,70.94
2022-11-01T00:45:59.045Z,71.08
2022-11-01T00:48:25.662Z,70.99
2022-11-01T00:50:52.615Z,71.25
2022-11-01T00:53:19.345Z,70.77
2022-11-01T00:55:46.106Z,70.47
2022-11-01T00:58:12.830Z,70.14
2022-11-01T01:00:39.536Z,70.21
2022-11-01T01:03:06.483Z,70.29
2022-11-01T01:05:34.410Z,70.92
2022-11-01T01:08:01.367Z,70.94
2022-11-01T01:10:28.198Z,71.01
2022-11-01T01:12:54.757Z,70.62
2022-11-01T01:15:21.407Z,70.06
2022-11-01T01:17:48.083Z,70.86
2022-11-01T01:20:14.784Z,70.70
2022-11-01T01:22:42.487Z,70.08
2022-11-01T01:25:10.519Z,70.48
2022-11-01T01:27:37.296Z,70.49
2022-11-01T01:30:07.567Z,70.15
2022-11-01T01:32:34.471Z,69.86
2022-11-01T01:35:01.099Z,70.10
2022-11-01T01:37:27.741Z,70.32
2022-11-01T01:39:54.533Z,70.44
2022-11-01T01:42:31.060Z,70.56
2022-11-01T01:44:57.514Z,70.88
2022-11-01T01:47:30.192Z,70.26
2022-11-01T01:50:00.716Z,69.94
2022-11-01T01:52:30.984Z,69.44
2022-11-01T01:55:00.351Z,68.85
2022-11-01T01:57:27.000Z,68.86
2022-11-01T01:59:53.795Z,68.36
2022-11-01T02:02:21.557Z,68.49
2022-11-01T02:04:54.010Z,68.87
2022-11-01T02:07:20.656Z,68.13
2022-11-01T02:09:47.861Z,67.91
2022-11-01T02:12:14.866Z,67.50
2022-11-01T02:14:43.900Z,67.70
2022-11-01T02:17:28.188Z,67.07
2022-11-01T02:20:13.114Z,67.18
2022-11-01T02:23:15.617Z,67.17
2022-11-01T02:26:05.844Z,67.19
2022-11-01T02:29:01.780Z,66.92
2022-11-01T02:31:52.822Z,67.33
2022-11-01T02:34:29.796Z,67.05
2022-11-01T02:37:01.762Z,67.30
2022-11-01T02:39:34.117Z,67.11
2022-11-01T02:42:15.046Z,67.26
2022-11-01T02:44:53.253Z,67.46
2022-11-01T02:47:20.283Z,67.26
2022-11-01T02:49:51.483Z,66.52
2022-11-01T02:52:22.154Z,67.52
2022-11-01T02:54:57.326Z,68.36
2022-11-01T02:57:28.851Z,70.41
2022-11-01T03:00:04.357Z,73.22
2022-11-01T03:02:44.174Z,75.81
2022-11-01T03:05:26.798Z,77.43
2022-11-01T03:08:00.103Z,78.57
2022-11-01T03:10:37.628Z,78.68
2022-11-01T03:13:32.405Z,79.19
2022-11-01T03:16:23.002Z,78.90
2022-11-01T03:19:06.213Z,79.78
2022-11-01T03:21:40.975Z,80.68
2022-11-01T03:24:27.292Z,81.46
2022-11-01T03:27:02.410Z,81.35
2022-11-01T03:29:31.951Z,80.46
2022-11-01T03:32:01.074Z,79.93
2022-11-01T03:34:27.644Z,79.46
2022-11-01T03:37:00.946Z,79.69
2022-11-01T03:39:33.894Z,80.23
2022-11-01T03:42:07.736Z,80.62
2022-11-01T03:44:41.008Z,80.23
2022-11-01T03:47:08.177Z,80.20
2022-11-01T03:49:34.804Z,80.77
2022-11-01T03:52:01.338Z,79.65
2022-11-01T03:54:29.109Z,79.69
2022-11-01T03:56:56.270Z,78.96
2022-11-01T03:59:26.172Z,78.38
2022-11-01T04:01:52.927Z,78.78
2022-11-01T04:04:19.668Z,79.15
2022-11-01T04:06:46.217Z,78.96
2022-11-01T04:09:12.780Z,78.78
2022-11-01T04:11:39.364Z,78.71
2022-11-01T04:14:24.701Z,78.44
2022-11-01T04:17:09.700Z,77.80
2022-11-01T04:19:55.141Z,78.09
2022-11-01T04:22:24.497Z,77.18
2022-11-01T04:24:51.381Z,76.98
2022-11-01T04:27:18.129Z,77.18
2022-11-01T04:29:44.737Z,77.77
2022-11-01T04:32:11.292Z,77.65
2022-11-01T04:34:43.742Z,77.58
2022-11-01T04:37:12.075Z,78.01
2022-11-01T04:39:38.622Z,76.85
2022-11-01T04:42:05.412Z,76.96
2022-11-01T04:44:31.975Z,77.77
2022-11-01T04:46:58.592Z,78.62
2022-11-01T04:49:25.162Z,80.20
2022-11-01T04:51:51.688Z,80.40
2022-11-01T04:54:18.340Z,81.86
2022-11-01T04:56:44.888Z,81.57
2022-11-01T04:59:11.424Z,81.23
2022-11-01T05:01:38.172Z,81.44
2022-11-01T05:04:04.932Z,80.69
2022-11-01T05:06:32.079Z,80.29
2022-11-01T05:08:58.633Z,79.07
2022-11-01T05:11:25.821Z,78.79
2022-11-01T05:13:52.611Z,78.37
2022-11-01T05:16:20.763Z,78.63
2022-11-01T05:18:48.862Z,78.45
2022-11-01T05:21:15.512Z,78.41
2022-11-01T05:23:42.049Z,78.41
2022-11-01T05:26:08.689Z,77.76
2022-11-01T05:28:35.301Z,77.99
2022-11-01T05:31:01.897Z,77.63
2022-11-01T05:33:28.423Z,78.35
2022-11-01T05:35:55.004Z,77.84
2022-11-01T05:38:21.690Z,77.42
2022-11-01T05:40:48.674Z,76.84
2022-11-01T05:43:15.411Z,76.47
2022-11-01T05:45:42.005Z,76.16
2022-11-01T05:48:09.238Z,76.30
2022-11-01T05:50:35.801Z,76.38
2022-11-01T05:53:07.431Z,75.68
2022-11-01T05:55:34.779Z,76.08
2022-11-01T05:58:01.493Z,76.21
2022-11-01T06:00:28.123Z,76.24
2022-11-01T06:03:00.870Z,76.09
2022-11-01T06:05:28.319Z,76.36
2022-11-01T06:07:55.214Z,76.48
2022-11-01T06:10:22.281Z,76.49
2022-11-01T06:12:49.137Z,75.84
2022-11-01T06:15:15.688Z,75.15
2022-11-01T06:17:42.397Z,75.72
2022-11-01T06:20:09.221Z,75.73
2022-11-01T06:22:36.634Z,75.28
2022-11-01T06:25:05.681Z,75.37
2022-11-01T06:27:32.629Z,75.14
2022-11-01T06:29:59.206Z,75.17
2022-11-01T06:32:25.771Z,74.95
2022-11-01T06:34:52.358Z,74.67
2022-11-01T06:37:18.968Z,74.55
2022-11-01T06:39:45.567Z,74.39
2022-11-01T06:42:12.154Z,74.25
2022-11-01T06:44:38.685Z,74.28
2022-11-01T06:47:05.282Z,73.63
2022-11-01T06:49:31.898Z,73.87
2022-11-01T06:51:58.711Z,73.96
2022-11-01T06:54:25.730Z,74.03
2022-11-01T06:56:52.335Z,74.36
2022-11-01T06:59:18.986Z,73.71
2022-11-01T07:01:45.739Z,74.18
2022-11-01T07:06:44.606Z,74.08
2022-11-01T07:09:11.317Z,73.86
2022-11-01T07:11:38.550Z,74.08
2022-11-01T07:14:05.540Z,73.87
2022-11-01T07:16:32.855Z,74.12
2022-11-01T07:18:59.445Z,74.02
2022-11-01T07:21:26.320Z,74.46
2022-11-01T07:23:54.072Z,74.04
2022-11-01T07:26:21.554Z,73.86
2022-11-01T07:28:48.182Z,74.15
2022-11-01T07:31:14.768Z,73.75
2022-11-01T07:33:41.606Z,73.91
2022-11-01T07:36:08.637Z,74.31
2022-11-01T07:38:35.192Z,74.58
2022-11-01T07:41:04.338Z,74.57
2022-11-01T07:43:31.041Z,73.66
2022-11-01T07:46:00.993Z,73.56
2022-11-01T07:48:27.750Z,73.70
2022-11-01T07:50:56.951Z,73.31
2022-11-01T07:53:23.941Z,73.40
2022-11-01T07:55:50.698Z,72.62
2022-11-01T07:58:17.698Z,72.63
2022-11-01T08:00:45.465Z,72.32
2022-11-01T08:03:15.281Z,72.77
2022-11-01T08:05:42.302Z,71.72
2022-11-01T08:08:09.488Z,72.04
2022-11-01T08:10:37.118Z,71.88
2022-11-01T08:13:16.782Z,71.77
2022-11-01T08:15:43.712Z,71.61
2022-11-01T08:18:10.715Z,71.79
2022-11-01T08:20:37.830Z,71.98
2022-11-01T08:23:05.337Z,71.20
2022-11-01T08:25:32.205Z,70.99
2022-11-01T08:28:04.301Z,70.14
2022-11-01T08:30:31.094Z,70.27
2022-11-01T08:32:59.745Z,70.09
2022-11-01T08:35:26.798Z,69.75
2022-11-01T08:37:54.077Z,69.85
2022-11-01T08:40:21.750Z,69.91
2022-11-01T08:42:48.925Z,69.46
2022-11-01T08:45:16.181Z,69.88
2022-11-01T08:47:43.330Z,70.00
2022-11-01T08:50:12.817Z,69.97
2022-11-01T08:52:40.562Z,70.36
2022-11-01T08:55:09.401Z,70.36
2022-11-01T08:57:36.002Z,70.28
2022-11-01T09:00:04.369Z,70.67
2022-11-01T09:02:31.265Z,70.28
2022-11-01T09:04:57.947Z,70.50
2022-11-01T09:07:24.654Z,70.23
2022-11-01T09:09:51.222Z,70.37
2022-11-01T09:12:23.411Z,70.51
2022-11-01T09:14:51.099Z,70.28
2022-11-01T09:17:17.621Z,70.45
2022-11-01T09:19:44.154Z,71.14
2022-11-01T09:22:10.690Z,71.50
2022-11-01T09:24:37.281Z,71.59
2022-11-01T09:27:03.855Z,70.82
2022-11-01T09:29:30.469Z,70.62
2022-11-01T09:31:57.093Z,70.02
2022-11-01T09:34:23.896Z,68.49
2022-11-01T09:36:50.509Z,67.17
2022-11-01T09:39:20.255Z,66.12
2022-11-01T09:41:49.885Z,65.69
2022-11-01T09:44:21.509Z,64.87
2022-11-01T09:47:02.737Z,65.10
2022-11-01T09:49:33.714Z,63.67
2022-11-01T09:52:00.777Z,62.75
2022-11-01T09:54:28.353Z,63.71
2022-11-01T09:57:03.234Z,63.84
2022-11-01T09:59:53.201Z,62.99
2022-11-01T10:02:41.346Z,60.64
2022-11-01T10:05:35.920Z,58.05
2022-11-01T10:08:08.522Z,55.43
2022-11-01T10:10:36.791Z,54.69
2022-11-01T10:13:09.389Z,54.02
2022-11-01T10:15:36.032Z,52.77
2022-11-01T10:18:28.104Z,50.05
2022-11-01T10:21:01.702Z,49.18
2022-11-01T10:23:35.362Z,48.82
2022-11-01T10:26:04.102Z,49.09
2022-11-01T10:28:34.503Z,48.26
2022-11-01T10:31:14.186Z,47.99
2022-11-01T10:33:48.323Z,47.27
2022-11-01T10:36:21.297Z,47.31
2022-11-01T10:39:54.108Z,48.21
2022-11-01T10:42:20.832Z,48.62
2022-11-01T10:44:55.387Z,47.88
2022-11-01T10:47:24.824Z,47.32
2022-11-01T10:50:05.943Z,45.64
2022-11-01T10:52:49.769Z,38.07
2022-11-01T10:55:24.693Z,33.87
2022-11-01T10:58:03.594Z,31.32
2022-11-01T11:00:34.681Z,27.56
2022-11-01T11:03:16.785Z,24.51
2022-11-01T11:05:44.020Z,22.95
2022-11-01T11:08:17.094Z,22.18
2022-11-01T11:10:45.187Z,21.04
2022-11-01T11:13:15.382Z,20.14
2022-11-01T11:16:05.399Z,18.49
2022-11-01T11:18:36.593Z,18.34
2022-11-01T11:21:08.647Z,17.95
2022-11-01T11:23:44.206Z,18.46
2022-11-01T11:26:19.620Z,17.71
2022-11-01T11:28:51.907Z,17.66
2022-11-01T11:31:23.229Z,18.37
2022-11-01T11:34:04.682Z,17.98
2022-11-01T11:36:37.751Z,18.25
2022-11-01T11:39:05.239Z,17.42
2022-11-01T11:41:39.260Z,16.17
2022-11-01T11:44:38.437Z,16.18
2022-11-01T11:47:04.889Z,15.99
2022-11-01T11:49:32.357Z,17.06
2022-11-01T11:51:59.373Z,16.40
2022-11-01T11:54:38.132Z,15.93
2022-11-01T11:57:17.767Z,16.05
2022-11-01T12:02:26.556Z,17.38
2022-11-01T12:04:56.928Z,16.67
2022-11-01T12:07:37.785Z,17.46
2022-11-01T12:10:06.862Z,16.96
2022-11-01T12:12:40.553Z,17.32
2022-11-01T12:15:28.716Z,16.77
2022-11-01T12:17:56.610Z,17.57
2022-11-01T12:20:25.767Z,17.39
2022-11-01T12:23:06.993Z,17.05
2022-11-01T12:25:35.802Z,17.82
2022-11-01T12:28:09.242Z,18.18
2022-11-01T12:30:37.863Z,18.51
2022-11-01T12:33:21.727Z,19.36
2022-11-01T12:35:48.948Z,20.00
2022-11-01T12:38:27.747Z,22.56
2022-11-01T12:40:55.130Z,25.65
2022-11-01T12:43:56.297Z,28.37
2022-11-01T12:46:33.669Z,30.59
2022-11-01T12:49:07.952Z,31.72
2022-11-01T12:51:44.351Z,33.48
2022-11-01T12:54:20.180Z,35.14
2022-11-01T12:56:46.786Z,35.13
2022-11-01T12:59:18.385Z,35.46
2022-11-01T13:02:19.624Z,36.02
2022-11-01T13:04:56.529Z,36.97
2022-11-01T13:07:55.837Z,36.98
2022-11-01T13:10:30.163Z,37.39
2022-11-01T13:13:30.307Z,36.97
2022-11-01T13:16:08.986Z,38.04
2022-11-01T13:18:47.898Z,37.74
2022-11-01T13:21:33.020Z,37.00
2022-11-01T13:24:20.512Z,36.78
2022-11-01T13:26:55.312Z,37.81
2022-11-01T13:29:37.043Z,38.02
2022-11-01T13:32:30.186Z,38.30
2022-11-01T13:35:23.230Z,38.13
2022-11-01T13:38:20.312Z,38.52
2022-11-01T13:41:20.785Z,38.17
2022-11-01T13:43:54.866Z,39.16
2022-11-01T13:46:21.394Z,39.12
2022-11-01T13:49:09.607Z,38.96
2022-11-01T13:51:56.650Z,38.76
2022-11-01T13:54:32.474Z,39.17
2022-11-01T13:57:09.616Z,38.57
2022-11-01T13:59:45.250Z,39.38
2022-11-01T14:02:23.965Z,39.56
2022-11-01T14:05:04.029Z,39.40
2022-11-01T14:07:37.027Z,39.75
2022-11-01T14:10:19.078Z,39.77
2022-11-01T14:13:06.942Z,39.71
2022-11-01T14:15:39.230Z,39.87
2022-11-01T14:18:11.305Z,39.49
2022-11-01T14:20:43.727Z,39.68
2022-11-01T14:23:42.865Z,39.04
2022-11-01T14:26:18.429Z,39.57
2022-11-01T14:28:46.802Z,40.09
2022-11-01T14:31:15.046Z,39.96
2022-11-01T14:33:42.969Z,40.59
2022-11-01T14:36:13.075Z,40.20
2022-11-01T14:39:21.570Z,41.09
2022-11-01T14:41:55.217Z,40.82
2022-11-01T14:44:34.844Z,40.95
2022-11-01T14:47:10.898Z,40.78
2022-11-01T14:49:43.542Z,41.58
2022-11-01T14:52:32.197Z,41.43
2022-11-01T14:55:18.541Z,42.40
2022-11-01T14:57:48.472Z,41.65
2022-11-01T15:00:33.366Z,41.37
2022-11-01T15:03:01.562Z,42.32
2022-11-01T15:05:28.635Z,42.06
2022-11-01T15:07:59.244Z,42.54
2022-11-01T15:10:26.766Z,42.59
2022-11-01T15:12:55.286Z,42.74
2022-11-01T15:15:24.969Z,43.37
2022-11-01T15:17:56.872Z,43.09
2022-11-01T15:20:28.992Z,43.13
2022-11-01T15:22:57.851Z,43.34
2022-11-01T15:25:26.663Z,43.64
2022-11-01T15:27:55.815Z,43.61
2022-11-01T15:30:22.418Z,43.83
2022-11-01T15:33:12.647Z,43.69
2022-11-01T15:35:39.851Z,44.33
2022-11-01T15:38:20.747Z,43.96
2022-11-01T15:40:48.865Z,44.21
2022-11-01T15:43:22.057Z,44.26
2022-11-01T15:46:01.572Z,44.23
2022-11-01T15:48:35.698Z,44.24
2022-11-01T15:51:07.088Z,44.51
2022-11-01T15:53:36.687Z,44.87
2022-11-01T15:56:18.067Z,44.74
2022-11-01T16:01:26.430Z,44.78
2022-11-01T16:04:11.181Z,44.85
2022-11-01T16:06:56.598Z,44.84
2022-11-01T16:09:30.733Z,45.33
2022-11-01T16:12:00.349Z,45.06
2022-11-01T16:14:33.570Z,45.72
2022-11-01T16:17:06.408Z,45.73
2022-11-01T16:19:40.093Z,45.77
2022-11-01T16:22:27.995Z,46.13
2022-11-01T16:25:13.703Z,46.20
2022-11-01T16:27:58.902Z,45.94
2022-11-01T16:30:54.787Z,46.30
2022-11-01T16:33:44.181Z,46.86
2022-11-01T16:36:20.135Z,47.05
2022-11-01T16:38:49.238Z,47.32
2022-11-01T16:41:39.779Z,47.04
2022-11-01T16:44:16.573Z,47.73
2022-11-01T16:46:43.419Z,47.52
2022-11-01T16:49:26.198Z,47.85
2022-11-01T16:51:56.368Z,48.12
2022-11-01T16:54:25.135Z,48.32
2022-11-01T16:56:54.647Z,48.34
2022-11-01T16:59:33.750Z,48.73
2022-11-01T17:02:02.468Z,48.29
2022-11-01T17:04:29.770Z,48.93
2022-11-01T17:06:59.846Z,48.75
2022-11-01T17:09:31.283Z,49.20
2022-11-01T17:11:58.438Z,49.58
2022-11-01T17:14:26.487Z,49.53
2022-11-01T17:16:56.651Z,49.60
2022-11-01T17:19:29.882Z,49.33
2022-11-01T17:21:59.680Z,50.05
2022-11-01T17:24:29.378Z,50.81
2022-11-01T17:27:00.637Z,50.30
2022-11-01T17:29:27.490Z,50.46
2022-11-01T17:31:54.187Z,50.22
2022-11-01T17:34:20.937Z,50.52
2022-11-01T17:36:49.588Z,50.28
2022-11-01T17:39:16.606Z,50.83
2022-11-01T17:41:43.798Z,50.73
2022-11-01T17:44:13.747Z,50.78
2022-11-01T17:46:40.510Z,50.84
2022-11-01T17:49:07.546Z,50.93
2022-11-01T17:51:34.220Z,51.64
2022-11-01T17:54:01.174Z,51.64
2022-11-01T17:56:27.825Z,51.75
2022-11-01T17:58:54.688Z,52.04
2022-11-01T18:01:22.008Z,52.42
2022-11-01T18:03:49.552Z,52.27
2022-11-01T18:06:18.878Z,51.89
2022-11-01T18:08:47.735Z,52.44
2022-11-01T18:11:35.163Z,52.52
2022-11-01T18:14:38.489Z,52.34
2022-11-01T18:17:29.259Z,52.62
2022-11-01T18:20:18.106Z,52.72
2022-11-01T18:22:56.597Z,52.45
2022-11-01T18:25:40.768Z,52.94
2022-11-01T18:28:16.742Z,53.67
2022-11-01T18:30:48.970Z,54.06
2022-11-01T18:33:41.628Z,54.02
2022-11-01T18:36:20.040Z,54.50
2022-11-01T18:39:12.728Z,54.33
2022-11-01T18:41:39.603Z,54.25
2022-11-01T18:44:11.238Z,54.05
2022-11-01T18:46:50.096Z,54.37
2022-11-01T18:49:17.077Z,54.59
2022-11-01T18:51:44.577Z,54.38
2022-11-01T18:54:11.351Z,54.55
2022-11-01T18:56:39.880Z,54.50
2022-11-01T18:59:15.321Z,54.44
2022-11-01T19:01:42.372Z,54.24
2022-11-01T19:04:14.477Z,54.30
2022-11-01T19:06:41.154Z,54.54
2022-11-01T19:09:29.116Z,54.30
2022-11-01T19:12:35.539Z,54.17
2022-11-01T19:15:13.651Z,54.94
2022-11-01T19:17:47.987Z,54.45
2022-11-01T19:20:23.591Z,55.02
2022-11-01T19:22:50.347Z,55.45
2022-11-01T19:25:22.830Z,55.19
2022-11-01T19:27:52.866Z,55.57
2022-11-01T19:30:28.616Z,55.91
2022-11-01T19:32:59.548Z,56.59
2022-11-01T19:35:26.589Z,55.89
2022-11-01T19:37:55.094Z,56.17
2022-11-01T19:40:28.039Z,56.59
2022-11-01T19:42:57.331Z,56.24
2022-11-01T19:45:32.628Z,56.79
2022-11-01T19:48:02.228Z,57.04
2022-11-01T19:50:39.943Z,57.36
2022-11-01T19:53:20.681Z,56.96
2022-11-01T19:55:58.355Z,56.81
2022-11-01T19:58:39.358Z,57.10
2022-11-01T20:01:08.774Z,56.95
2022-11-01T20:03:46.065Z,57.17
2022-11-01T20:06:42.997Z,57.30
2022-11-01T20:09:16.597Z,57.66
2022-11-01T20:11:43.490Z,57.47
2022-11-01T20:14:10.327Z,57.51
2022-11-01T20:16:36.956Z,58.26
2022-11-01T20:19:03.773Z,58.26
2022-11-01T20:21:30.429Z,58.15
2022-11-01T20:23:58.698Z,58.16
2022-11-01T20:26:25.638Z,58.77
2022-11-01T20:28:52.329Z,58.44
2022-11-01T20:31:19.593Z,59.01
2022-11-01T20:33:50.676Z,58.97
2022-11-01T20:36:17.431Z,59.81
2022-11-01T20:38:44.669Z,59.84
2022-11-01T20:41:13.055Z,60.23
2022-11-01T20:43:40.081Z,60.04
2022-11-01T20:46:07.782Z,60.25
2022-11-01T20:48:34.538Z,60.18
2022-11-01T20:51:01.437Z,60.49
2022-11-01T20:53:29.903Z,60.78
2022-11-01T20:55:56.874Z,61.04
2022-11-01T20:58:23.530Z,61.01
2022-11-01T21:00:51.626Z,60.73
2022-11-01T21:03:20.933Z,61.10
2022-11-01T21:05:49.377Z,61.04
2022-11-01T21:08:24.047Z,61.75
2022-11-01T21:11:02.316Z,61.26
2022-11-01T21:13:37.074Z,61.19
2022-11-01T21:16:14.066Z,61.67
2022-11-01T21:18:44.489Z,61.57
2022-11-01T21:21:13.955Z,60.86
2022-11-01T21:23:42.971Z,61.02
2022-11-01T21:26:17.489Z,60.69
2022-11-01T21:29:02.811Z,60.92
2022-11-01T21:31:31.130Z,60.70
2022-11-01T21:34:01.801Z,60.73
2022-11-01T21:36:33.245Z,60.86
2022-11-01T21:39:11.307Z,60.56
2022-11-01T21:41:44.349Z,60.07
2022-11-01T21:44:30.846Z,60.15
2022-11-01T21:47:06.565Z,59.77
2022-11-01T21:49:33.694Z,60.22
2022-11-01T21:52:03.646Z,59.53
2022-11-01T21:54:33.999Z,59.45
2022-11-01T21:57:01.356Z,59.52
2022-11-01T21:59:28.815Z,59.56
2022-11-01T22:01:57.101Z,59.50
2022-11-01T22:04:28.503Z,59.64
2022-11-01T22:06:56.751Z,59.53
2022-11-01T22:09:23.464Z,59.84
2022-11-01T22:11:50.067Z,59.69
2022-11-01T22:14:16.621Z,59.48
2022-11-01T22:16:43.546Z,59.89
2022-11-01T22:19:10.869Z,59.48
2022-11-01T22:21:40.431Z,59.88
2022-11-01T22:24:07.629Z,60.10
2022-11-01T22:26:34.758Z,59.80
2022-11-01T22:29:02.193Z,59.78
2022-11-01T22:31:29.126Z,59.67
2022-11-01T22:33:57.185Z,59.82
2022-11-01T22:36:29.646Z,60.13
2022-11-01T22:38:58.822Z,59.85
2022-11-01T22:41:34.178Z,59.96
2022-11-01T22:44:10.001Z,60.01
2022-11-01T22:46:52.350Z,60.02
2022-11-01T22:49:32.645Z,60.40
2022-11-01T22:52:06.932Z,60.45
2022-11-01T22:54:47.473Z,60.53
2022-11-01T22:57:31.581Z,60.32
2022-11-01T23:00:02.179Z,60.09
2022-11-01T23:02:30.218Z,60.85
2022-11-01T23:05:00.018Z,60.50
2022-11-01T23:07:51.637Z,60.81
2022-11-01T23:10:37.940Z,60.53
2022-11-01T23:13:37.069Z,60.79
2022-11-01T23:16:19.963Z,60.98
2022-11-01T23:18:46.580Z,60.84
2022-11-01T23:21:13.233Z,60.60
2022-11-01T23:23:42.776Z,60.72
2022-11-01T23:26:10.324Z,60.70
2022-11-01T23:28:41.800Z,60.31
2022-11-01T23:31:08.394Z,60.67
2022-11-01T23:33:39.932Z,60.79
2022-11-01T23:36:16.250Z,61.23
2022-11-01T23:38:56.563Z,61.06
2022-11-01T23:41:32.352Z,60.89
2022-11-01T23:44:01.515Z,61.42
2022-11-01T23:46:28.206Z,61.30
2022-11-01T23:49:10.597Z,61.80
2022-11-01T23:51:37.332Z,61.30
2022-11-01T23:54:04.203Z,61.38
2022-11-01T23:56:30.775Z,61.08
2022-11-01T23:59:03.821Z,61.03
